createdAt,value
2023-01-22T00:01:04.254Z,1.55
2023-01-22T00:03:30.753Z,1.26
2023-01-22T00:05:57.529Z,1.39
2023-01-22T00:08:23.976Z,1.11
2023-01-22T00:10:51.378Z,1.20
2023-01-22T00:13:20.147Z,1.06
2023-01-22T00:15:47.631Z,1.45
2023-01-22T00:18:14.783Z,1.20
2023-01-22T00:20:41.812Z,1.52
2023-01-22T00:23:08.379Z,1.18
2023-01-22T00:25:34.899Z,1.10
2023-01-22T00:28:01.569Z,1.10
2023-01-22T00:30:29.664Z,1.09
2023-01-22T00:32:56.492Z,1.38
2023-01-22T00:35:23.627Z,1.22
2023-01-22T00:37:50.234Z,1.18
2023-01-22T00:40:17.821Z,1.18
2023-01-22T00:42:44.745Z,1.32
2023-01-22T00:45:14.041Z,1.46
2023-01-22T00:47:42.016Z,1.39
2023-01-22T00:50:10.010Z,1.43
2023-01-22T00:52:36.471Z,1.21
2023-01-22T00:55:03.655Z,1.34
2023-01-22T00:57:30.174Z,1.57
2023-01-22T00:59:56.865Z,1.52
2023-01-22T01:02:23.355Z,1.05
2023-01-22T01:04:51.663Z,1.22
2023-01-22T01:07:18.105Z,1.16
2023-01-22T01:09:44.597Z,1.10
2023-01-22T01:12:11.137Z,1.39
2023-01-22T01:14:38.753Z,1.35
2023-01-22T01:17:05.460Z,1.23
2023-01-22T01:19:33.879Z,1.55
2023-01-22T01:22:02.081Z,1.27
2023-01-22T01:24:28.780Z,1.39
2023-01-22T01:26:55.964Z,1.19
2023-01-22T01:29:22.490Z,1.21
2023-01-22T01:31:49.208Z,1.22
2023-01-22T01:34:15.755Z,1.41
2023-01-22T01:36:49.892Z,1.03
2023-01-22T01:39:18.123Z,1.16
2023-01-22T01:41:44.912Z,1.24
2023-01-22T01:44:14.597Z,1.48
2023-01-22T01:46:44.633Z,1.44
2023-01-22T01:49:17.988Z,1.34
2023-01-22T01:51:45.236Z,1.07
2023-01-22T01:54:12.505Z,1.46
2023-01-22T01:56:44.370Z,1.23
2023-01-22T01:59:14.222Z,1.27
2023-01-22T02:01:41.262Z,1.06
2023-01-22T02:04:08.016Z,1.08
2023-01-22T02:06:34.861Z,1.10
2023-01-22T02:09:02.290Z,0.95
2023-01-22T02:11:30.539Z,1.21
2023-01-22T02:14:02.064Z,1.13
2023-01-22T02:16:28.657Z,1.15
2023-01-22T02:18:55.216Z,1.25
2023-01-22T02:21:34.794Z,1.01
2023-01-22T02:24:01.911Z,0.96
2023-01-22T02:26:29.156Z,0.99
2023-01-22T02:28:55.670Z,1.02
2023-01-22T02:34:08.681Z,0.85
2023-01-22T02:36:38.768Z,0.98
2023-01-22T02:39:05.819Z,0.87
2023-01-22T02:41:32.588Z,0.75
2023-01-22T02:43:59.321Z,0.90
2023-01-22T02:46:26.801Z,1.07
2023-01-22T02:48:53.447Z,1.04
2023-01-22T02:51:20.134Z,1.19
2023-01-22T02:53:47.986Z,1.03
2023-01-22T02:56:14.538Z,1.03
2023-01-22T02:58:41.100Z,1.16
2023-01-22T03:01:09.644Z,1.09
2023-01-22T03:03:36.266Z,1.02
2023-01-22T03:06:02.904Z,0.93
2023-01-22T03:08:29.396Z,1.15
2023-01-22T03:10:59.228Z,1.30
2023-01-22T03:13:25.701Z,0.87
2023-01-22T03:15:52.261Z,1.10
2023-01-22T03:18:19.041Z,0.94
2023-01-22T03:20:45.599Z,0.97
2023-01-22T03:23:12.343Z,0.77
2023-01-22T03:25:38.998Z,1.02
2023-01-22T03:28:06.837Z,1.05
2023-01-22T03:30:33.315Z,0.92
2023-01-22T03:32:59.933Z,0.97
2023-01-22T03:35:26.490Z,1.02
2023-01-22T03:37:52.984Z,0.84
2023-01-22T03:40:19.644Z,0.78
2023-01-22T03:42:46.392Z,0.93
2023-01-22T03:45:14.280Z,0.78
2023-01-22T03:47:40.732Z,0.86
2023-01-22T03:50:08.620Z,1.11
2023-01-22T03:52:35.086Z,0.82
2023-01-22T03:55:01.556Z,0.92
2023-01-22T03:57:30.578Z,0.96
2023-01-22T03:59:57.038Z,0.76
2023-01-22T04:02:25.089Z,0.95
2023-01-22T04:04:51.596Z,0.90
2023-01-22T04:07:18.263Z,0.75
2023-01-22T04:09:44.956Z,0.68
2023-01-22T04:12:11.879Z,0.68
2023-01-22T04:14:38.437Z,0.51
2023-01-22T04:17:04.955Z,0.74
2023-01-22T04:19:32.824Z,0.72
2023-01-22T04:21:59.572Z,0.74
2023-01-22T04:24:26.150Z,0.49
2023-01-22T04:26:52.713Z,0.47
2023-01-22T04:29:19.427Z,0.42
2023-01-22T04:31:46.065Z,0.56
2023-01-22T04:34:12.581Z,0.58
2023-01-22T04:36:40.573Z,0.58
2023-01-22T04:39:07.073Z,0.61
2023-01-22T04:41:33.552Z,0.60
2023-01-22T04:44:00.755Z,0.56
2023-01-22T04:46:27.366Z,0.41
2023-01-22T04:48:53.892Z,0.39
2023-01-22T04:51:20.531Z,0.36
2023-01-22T04:53:48.642Z,0.49
2023-01-22T04:56:15.104Z,0.45
2023-01-22T04:58:41.723Z,0.59
2023-01-22T05:01:08.173Z,0.21
2023-01-22T05:03:34.738Z,0.39
2023-01-22T05:06:03.100Z,0.33
2023-01-22T05:08:29.614Z,0.27
2023-01-22T05:11:01.734Z,0.25
2023-01-22T05:13:28.209Z,0.32
2023-01-22T05:15:54.703Z,0.34
2023-01-22T05:18:21.232Z,0.42
2023-01-22T05:20:47.816Z,0.30
2023-01-22T05:23:14.418Z,0.43
2023-01-22T05:25:40.956Z,0.26
2023-01-22T05:28:08.903Z,0.50
2023-01-22T05:30:35.425Z,0.39
2023-01-22T05:33:01.964Z,0.30
2023-01-22T05:35:28.440Z,0.51
2023-01-22T05:37:56.323Z,0.36
2023-01-22T05:40:22.794Z,0.31
2023-01-22T05:42:49.306Z,0.68
2023-01-22T05:45:17.223Z,0.65
2023-01-22T05:47:43.705Z,0.44
2023-01-22T05:50:10.987Z,0.35
2023-01-22T05:52:37.463Z,0.35
2023-01-22T05:55:04.475Z,0.41
2023-01-22T05:57:31.102Z,0.60
2023-01-22T05:59:57.580Z,0.64
2023-01-22T06:02:25.489Z,0.64
2023-01-22T06:04:51.997Z,0.38
2023-01-22T06:07:18.521Z,0.60
2023-01-22T06:09:45.011Z,0.55
2023-01-22T06:12:11.546Z,0.42
2023-01-22T06:14:38.020Z,0.57
2023-01-22T06:17:04.609Z,0.59
2023-01-22T06:19:32.489Z,0.74
2023-01-22T06:21:59.155Z,0.41
2023-01-22T06:24:25.879Z,0.61
2023-01-22T06:26:52.385Z,0.83
2023-01-22T06:29:18.964Z,0.74
2023-01-22T06:31:45.799Z,0.57
2023-01-22T06:34:12.338Z,0.75
2023-01-22T06:36:43.395Z,0.83
2023-01-22T06:39:10.267Z,0.78
2023-01-22T06:41:36.854Z,0.83
2023-01-22T06:44:03.590Z,0.71
2023-01-22T06:46:30.070Z,0.90
2023-01-22T06:48:56.798Z,0.87
2023-01-22T06:51:23.367Z,0.88
2023-01-22T06:53:51.267Z,1.00
2023-01-22T06:56:17.927Z,0.68
2023-01-22T06:58:44.431Z,0.85
2023-01-22T07:01:11.545Z,0.68
2023-01-22T07:03:38.220Z,0.59
2023-01-22T07:06:05.453Z,0.61
2023-01-22T07:08:33.900Z,0.74
2023-01-22T07:11:02.208Z,0.64
2023-01-22T07:13:29.077Z,0.80
2023-01-22T07:15:55.902Z,0.72
2023-01-22T07:18:22.449Z,0.64
2023-01-22T07:20:49.300Z,1.05
2023-01-22T07:23:16.367Z,0.97
2023-01-22T07:25:42.887Z,0.87
2023-01-22T07:28:14.164Z,1.04
2023-01-22T07:30:41.598Z,0.86
2023-01-22T07:33:10.837Z,0.66
2023-01-22T07:35:37.372Z,0.97
2023-01-22T07:38:03.861Z,1.16
2023-01-22T07:40:30.365Z,1.08
2023-01-22T07:42:56.906Z,0.82
2023-01-22T07:45:25.340Z,1.07
2023-01-22T07:47:52.641Z,1.27
2023-01-22T07:50:19.436Z,1.06
2023-01-22T07:52:47.111Z,1.08
2023-01-22T07:55:14.152Z,1.21
2023-01-22T07:57:40.759Z,1.19
2023-01-22T08:00:09.629Z,1.23
2023-01-22T08:02:37.882Z,1.39
2023-01-22T08:05:05.209Z,1.34
2023-01-22T08:07:31.906Z,1.21
2023-01-22T08:09:58.443Z,0.99
2023-01-22T08:12:24.913Z,1.01
2023-01-22T08:14:52.010Z,1.08
2023-01-22T08:17:18.479Z,1.31
2023-01-22T08:19:46.309Z,1.10
2023-01-22T08:22:12.837Z,1.13
2023-01-22T08:24:39.339Z,0.95
2023-01-22T08:27:05.819Z,0.88
2023-01-22T08:29:32.554Z,1.13
2023-01-22T08:31:59.367Z,1.11
2023-01-22T08:34:26.102Z,1.24
2023-01-22T08:36:54.998Z,0.99
2023-01-22T08:39:21.639Z,0.98
2023-01-22T08:41:48.190Z,1.20
2023-01-22T08:44:14.891Z,1.24
2023-01-22T08:46:41.487Z,1.27
2023-01-22T08:49:08.064Z,1.04
2023-01-22T08:51:35.133Z,1.31
2023-01-22T08:54:03.162Z,1.26
2023-01-22T08:56:29.650Z,1.41
2023-01-22T08:58:56.293Z,1.11
2023-01-22T09:01:22.997Z,1.45
2023-01-22T09:03:49.552Z,1.13
2023-01-22T09:06:16.081Z,1.26
2023-01-22T09:08:42.548Z,1.36
2023-01-22T09:11:10.369Z,1.24
2023-01-22T09:13:37.010Z,1.09
2023-01-22T09:16:03.926Z,1.07
2023-01-22T09:18:30.369Z,1.28
2023-01-22T09:20:56.856Z,1.44
2023-01-22T09:23:23.435Z,1.28
2023-01-22T09:25:50.161Z,1.73
2023-01-22T09:28:18.010Z,1.61
2023-01-22T09:30:44.505Z,1.68
2023-01-22T09:33:11.090Z,1.55
2023-01-22T09:35:37.592Z,1.39
2023-01-22T09:38:04.193Z,1.68
2023-01-22T09:40:36.332Z,1.74
2023-01-22T09:43:06.128Z,1.59
2023-01-22T09:45:38.062Z,1.77
2023-01-22T09:48:07.991Z,1.76
2023-01-22T09:50:34.729Z,1.73
2023-01-22T09:53:04.621Z,1.55
2023-01-22T09:55:44.812Z,1.82
2023-01-22T09:58:15.863Z,1.81
2023-01-22T10:00:48.800Z,2.09
2023-01-22T10:03:22.881Z,1.85
2023-01-22T10:05:52.878Z,1.93
2023-01-22T10:08:22.490Z,1.80
2023-01-22T10:10:50.724Z,1.83
2023-01-22T10:13:19.206Z,1.73
2023-01-22T10:15:48.001Z,1.76
2023-01-22T10:18:26.620Z,1.91
2023-01-22T10:20:54.298Z,1.90
2023-01-22T10:23:23.519Z,1.56
2023-01-22T10:25:53.732Z,1.77
2023-01-22T10:28:25.206Z,1.95
2023-01-22T10:30:53.220Z,1.81
2023-01-22T10:33:22.775Z,1.82
2023-01-22T10:35:52.397Z,2.02
2023-01-22T10:38:24.181Z,2.04
2023-01-22T10:40:57.494Z,2.14
2023-01-22T10:43:31.981Z,1.73
2023-01-22T10:46:05.817Z,1.94
2023-01-22T10:48:32.599Z,1.83
2023-01-22T10:51:03.192Z,2.21
2023-01-22T10:53:33.071Z,1.99
2023-01-22T10:56:02.514Z,1.93
2023-01-22T10:58:32.905Z,2.61
2023-01-22T11:01:04.054Z,2.29
2023-01-22T11:03:33.542Z,2.11
2023-01-22T11:06:03.119Z,2.14
2023-01-22T11:08:45.624Z,2.22
2023-01-22T11:11:16.029Z,2.03
2023-01-22T11:14:02.563Z,2.16
2023-01-22T11:16:34.880Z,2.39
2023-01-22T11:19:05.909Z,2.10
2023-01-22T11:21:35.486Z,2.33
2023-01-22T11:24:06.454Z,2.36
2023-01-22T11:26:59.581Z,2.61
2023-01-22T11:29:48.443Z,2.10
2023-01-22T11:32:35.700Z,2.36
2023-01-22T11:35:14.014Z,1.99
2023-01-22T11:37:54.063Z,2.49
2023-01-22T11:40:27.013Z,2.47
2023-01-22T11:43:08.922Z,2.61
2023-01-22T11:46:06.346Z,3.08
2023-01-22T11:48:55.868Z,2.60
2023-01-22T11:51:31.016Z,2.68
2023-01-22T11:54:23.731Z,2.69
2023-01-22T11:57:04.791Z,2.37
2023-01-22T11:59:48.526Z,2.36
2023-01-22T12:02:43.421Z,2.18
2023-01-22T12:05:21.653Z,2.44
2023-01-22T12:08:16.658Z,2.23
2023-01-22T12:11:21.891Z,2.09
2023-01-22T12:14:09.213Z,2.36
2023-01-22T12:16:44.664Z,2.40
2023-01-22T12:19:42.871Z,2.41
2023-01-22T12:22:24.924Z,2.47
2023-01-22T12:24:58.573Z,2.53
2023-01-22T12:27:30.126Z,2.85
2023-01-22T12:30:02.399Z,2.66
2023-01-22T12:32:33.688Z,2.29
2023-01-22T12:35:05.044Z,2.28
2023-01-22T12:37:41.008Z,2.39
2023-01-22T12:40:30.023Z,2.28
2023-01-22T12:43:00.647Z,2.36
2023-01-22T12:45:36.306Z,2.37
2023-01-22T12:48:09.963Z,2.29
2023-01-22T12:50:36.862Z,2.17
2023-01-22T12:53:19.863Z,2.07
2023-01-22T12:55:58.200Z,2.22
2023-01-22T12:58:27.247Z,2.37
2023-01-22T13:01:00.966Z,2.19
2023-01-22T13:03:32.877Z,2.03
2023-01-22T13:06:00.957Z,2.00
2023-01-22T13:08:38.632Z,2.28
2023-01-22T13:11:07.634Z,2.04
2023-01-22T13:13:38.882Z,2.39
2023-01-22T13:16:16.563Z,2.32
2023-01-22T13:18:47.319Z,3.12
2023-01-22T13:21:16.257Z,2.83
2023-01-22T13:23:46.337Z,3.06
2023-01-22T13:26:17.583Z,3.16
2023-01-22T13:28:50.707Z,2.76
2023-01-22T13:31:18.370Z,2.81
2023-01-22T13:33:58.907Z,2.89
2023-01-22T13:36:26.192Z,2.57
2023-01-22T13:38:56.286Z,2.62
2023-01-22T13:41:30.874Z,2.55
2023-01-22T13:43:57.661Z,2.70
2023-01-22T13:46:24.918Z,2.52
2023-01-22T13:49:04.355Z,2.79
2023-01-22T13:51:33.555Z,2.71
2023-01-22T13:54:02.844Z,2.76
2023-01-22T13:56:29.999Z,2.69
2023-01-22T13:59:19.337Z,2.79
2023-01-22T14:01:46.417Z,2.59
2023-01-22T14:04:28.514Z,2.47
2023-01-22T14:06:55.874Z,2.46
2023-01-22T14:09:29.174Z,2.68
2023-01-22T14:11:56.766Z,2.55
2023-01-22T14:14:23.449Z,2.83
2023-01-22T14:16:50.132Z,2.59
2023-01-22T14:19:17.047Z,2.47
2023-01-22T14:21:43.575Z,2.65
2023-01-22T14:24:10.365Z,2.55
2023-01-22T14:26:38.653Z,2.65
2023-01-22T14:29:07.332Z,2.49
2023-01-22T14:31:34.002Z,2.82
2023-01-22T14:34:00.561Z,2.58
2023-01-22T14:36:27.094Z,2.63
2023-01-22T14:38:53.689Z,2.52
2023-01-22T14:41:20.367Z,2.68
2023-01-22T14:43:48.304Z,2.90
2023-01-22T14:46:15.084Z,2.77
2023-01-22T14:48:41.627Z,2.88
2023-01-22T14:51:09.660Z,2.82
2023-01-22T14:53:36.322Z,2.68
2023-01-22T14:56:02.938Z,2.61
2023-01-22T14:58:29.471Z,2.65
2023-01-22T15:00:57.457Z,2.44
2023-01-22T15:03:24.099Z,2.42
2023-01-22T15:05:51.243Z,2.41
2023-01-22T15:08:17.780Z,2.84
2023-01-22T15:10:45.189Z,2.54
2023-01-22T15:13:11.785Z,2.44
2023-01-22T15:15:38.628Z,2.53
2023-01-22T15:18:06.499Z,2.51
2023-01-22T15:20:33.597Z,2.58
2023-01-22T15:23:00.333Z,2.54
2023-01-22T15:25:36.940Z,2.59
2023-01-22T15:28:18.141Z,2.31
2023-01-22T15:30:47.281Z,2.33
2023-01-22T15:33:15.393Z,2.29
2023-01-22T15:35:43.658Z,2.29
2023-01-22T15:38:14.192Z,2.15
2023-01-22T15:40:40.892Z,2.40
2023-01-22T15:43:16.201Z,2.28
2023-01-22T15:45:42.751Z,2.09
2023-01-22T15:48:09.344Z,2.14
2023-01-22T15:50:37.295Z,2.30
2023-01-22T15:53:03.873Z,2.38
2023-01-22T15:55:30.771Z,2.53
2023-01-22T15:57:57.302Z,2.58
2023-01-22T16:00:24.062Z,2.24
2023-01-22T16:02:50.651Z,2.19
2023-01-22T16:05:17.217Z,2.62
2023-01-22T16:07:52.005Z,2.60
2023-01-22T16:10:19.101Z,2.58
2023-01-22T16:12:57.304Z,2.69
2023-01-22T16:15:29.266Z,2.68
2023-01-22T16:17:55.963Z,2.59
2023-01-22T16:20:27.700Z,2.44
2023-01-22T16:23:15.997Z,2.43
2023-01-22T16:25:42.521Z,2.67
2023-01-22T16:28:09.108Z,2.73
2023-01-22T16:30:36.254Z,2.72
2023-01-22T16:33:17.264Z,2.32
2023-01-22T16:35:47.674Z,2.37
2023-01-22T16:38:31.510Z,2.14
2023-01-22T16:41:08.642Z,2.36
2023-01-22T16:43:35.334Z,2.24
2023-01-22T16:46:57.565Z,2.35
2023-01-22T16:49:29.435Z,2.20
2023-01-22T16:51:58.010Z,2.21
2023-01-22T16:54:28.707Z,2.51
2023-01-22T16:57:00.597Z,2.48
2023-01-22T16:59:28.155Z,2.63
2023-01-22T17:02:04.716Z,2.46
2023-01-22T17:04:58.574Z,2.65
2023-01-22T17:07:33.657Z,2.20
2023-01-22T17:10:09.340Z,2.37
2023-01-22T17:15:20.033Z,2.73
2023-01-22T17:17:46.756Z,2.35
2023-01-22T17:20:13.456Z,2.25
2023-01-22T17:22:43.292Z,2.35
2023-01-22T17:25:14.286Z,2.32
2023-01-22T17:27:41.333Z,2.29
2023-01-22T17:30:09.989Z,2.33
2023-01-22T17:32:36.477Z,2.67
2023-01-22T17:35:03.430Z,2.62
2023-01-22T17:37:54.653Z,2.54
2023-01-22T17:40:22.539Z,2.64
2023-01-22T17:42:49.045Z,2.92
2023-01-22T17:45:30.683Z,2.95
2023-01-22T17:47:57.613Z,3.03
2023-01-22T17:50:24.153Z,3.32
2023-01-22T17:52:50.696Z,3.20
2023-01-22T17:55:17.705Z,3.21
2023-01-22T17:57:45.868Z,2.86
2023-01-22T18:00:16.103Z,2.92
2023-01-22T18:02:42.648Z,3.08
2023-01-22T18:05:10.527Z,3.08
2023-01-22T18:07:37.036Z,2.82
2023-01-22T18:10:04.031Z,2.99
2023-01-22T18:12:30.538Z,2.92
2023-01-22T18:14:59.702Z,2.75
2023-01-22T18:17:27.610Z,2.84
2023-01-22T18:19:54.125Z,2.92
2023-01-22T18:22:20.546Z,2.81
2023-01-22T18:24:47.059Z,2.81
2023-01-22T18:27:13.752Z,2.86
2023-01-22T18:29:40.276Z,2.91
2023-01-22T18:32:08.197Z,2.92
2023-01-22T18:34:34.968Z,2.83
2023-01-22T18:37:01.523Z,2.93
2023-01-22T18:39:28.110Z,3.01
2023-01-22T18:41:54.659Z,2.91
2023-01-22T18:44:21.270Z,2.88
2023-01-22T18:46:47.804Z,3.14
2023-01-22T18:49:18.681Z,2.93
2023-01-22T18:51:45.707Z,3.05
2023-01-22T18:54:12.532Z,3.31
2023-01-22T18:56:39.191Z,2.84
2023-01-22T18:59:06.425Z,2.70
2023-01-22T19:01:35.339Z,2.79
2023-01-22T19:04:04.270Z,2.68
2023-01-22T19:06:36.723Z,2.64
2023-01-22T19:09:05.577Z,2.78
2023-01-22T19:11:33.926Z,2.92
2023-01-22T19:14:01.306Z,3.05
2023-01-22T19:16:28.160Z,3.35
2023-01-22T19:18:56.058Z,3.36
2023-01-22T19:21:24.215Z,3.35
2023-01-22T19:23:54.237Z,3.43
2023-01-22T19:26:23.624Z,3.35
2023-01-22T19:28:53.454Z,3.17
2023-01-22T19:31:23.492Z,2.85
2023-01-22T19:33:52.165Z,2.94
2023-01-22T19:36:20.134Z,2.89
2023-01-22T19:38:47.156Z,2.56
2023-01-22T19:41:15.041Z,2.62
2023-01-22T19:43:42.629Z,3.01
2023-01-22T19:46:12.072Z,2.85
2023-01-22T19:48:39.614Z,2.79
2023-01-22T19:51:08.620Z,2.88
2023-01-22T19:53:36.029Z,3.07
2023-01-22T19:56:03.240Z,3.30
2023-01-22T19:58:31.244Z,2.89
2023-01-22T20:00:57.823Z,2.70
2023-01-22T20:03:25.106Z,3.03
2023-01-22T20:05:51.838Z,3.25
2023-01-22T20:08:18.402Z,2.88
2023-01-22T20:10:44.962Z,2.94
2023-01-22T20:13:11.848Z,3.07
2023-01-22T20:15:40.714Z,2.96
2023-01-22T20:18:08.737Z,3.16
2023-01-22T20:21:06.541Z,3.32
2023-01-22T20:23:41.399Z,3.34
2023-01-22T20:26:30.295Z,3.15
2023-01-22T20:32:20.565Z,3.52
2023-01-22T20:38:14.608Z,3.66
2023-01-22T20:40:41.219Z,3.66
2023-01-22T20:43:07.716Z,3.50
2023-01-22T20:45:34.270Z,3.64
2023-01-22T20:48:02.233Z,3.62
2023-01-22T20:50:28.785Z,3.60
2023-01-22T20:52:55.647Z,3.57
2023-01-22T20:55:22.159Z,3.77
2023-01-22T20:57:48.683Z,3.75
2023-01-22T21:00:15.689Z,3.68
2023-01-22T21:02:42.224Z,3.37
2023-01-22T21:05:10.383Z,3.43
2023-01-22T21:07:36.939Z,3.69
2023-01-22T21:10:03.926Z,3.67
2023-01-22T21:12:30.407Z,3.38
2023-01-22T21:14:57.494Z,3.37
2023-01-22T21:17:24.265Z,3.29
2023-01-22T21:19:50.828Z,3.32
2023-01-22T21:22:21.253Z,3.58
2023-01-22T21:24:47.793Z,3.75
2023-01-22T21:27:14.294Z,3.68
2023-01-22T21:29:41.074Z,3.46
2023-01-22T21:32:07.721Z,3.26
2023-01-22T21:34:34.267Z,3.07
2023-01-22T21:37:00.993Z,2.97
2023-01-22T21:39:30.006Z,2.96
2023-01-22T21:41:57.270Z,2.84
2023-01-22T21:44:24.208Z,2.87
2023-01-22T21:46:51.251Z,3.07
2023-01-22T21:49:20.015Z,2.97
2023-01-22T21:51:48.155Z,3.05
2023-01-22T21:54:16.267Z,2.73
2023-01-22T21:56:44.321Z,2.98
2023-01-22T21:59:11.276Z,2.98
2023-01-22T22:01:37.926Z,2.91
2023-01-22T22:04:06.055Z,2.95
2023-01-22T22:06:34.228Z,2.87
2023-01-22T22:09:04.847Z,2.76
2023-01-22T22:11:31.365Z,3.23
2023-01-22T22:13:59.287Z,3.33
2023-01-22T22:16:26.164Z,3.34
2023-01-22T22:18:56.195Z,3.25
2023-01-22T22:21:22.947Z,3.45
2023-01-22T22:23:49.967Z,3.63
2023-01-22T22:26:17.210Z,3.69
2023-01-22T22:28:44.250Z,3.71
2023-01-22T22:31:14.154Z,3.78
2023-01-22T22:33:41.864Z,3.94
2023-01-22T22:36:09.089Z,4.14
2023-01-22T22:38:36.124Z,4.05
2023-01-22T22:41:05.352Z,3.76
2023-01-22T22:43:34.280Z,3.75
2023-01-22T22:46:02.731Z,3.61
2023-01-22T22:48:30.795Z,3.57
2023-01-22T22:50:57.825Z,3.58
2023-01-22T22:53:24.673Z,3.32
2023-01-22T22:55:51.243Z,3.38
2023-01-22T22:58:17.766Z,3.45
2023-01-22T23:00:44.345Z,3.59
2023-01-22T23:03:11.062Z,3.65
2023-01-22T23:05:39.379Z,3.48
2023-01-22T23:08:06.083Z,3.36
2023-01-22T23:10:32.633Z,3.59
2023-01-22T23:13:02.187Z,3.42
2023-01-22T23:15:30.131Z,3.37
2023-01-22T23:17:59.676Z,3.42
2023-01-22T23:20:27.176Z,3.45
2023-01-22T23:22:57.721Z,3.37
2023-01-22T23:25:27.348Z,3.40
2023-01-22T23:27:54.039Z,3.42
2023-01-22T23:30:20.989Z,3.56
2023-01-22T23:32:47.663Z,3.69
2023-01-22T23:35:14.214Z,3.99
2023-01-22T23:37:40.921Z,3.90
2023-01-22T23:40:10.614Z,3.86
2023-01-22T23:42:37.078Z,3.63
2023-01-22T23:45:04.616Z,3.86
2023-01-22T23:47:31.350Z,4.04
2023-01-22T23:49:57.951Z,3.82
2023-01-22T23:52:24.533Z,3.96
2023-01-22T23:54:51.046Z,3.70
2023-01-22T23:57:18.928Z,3.80
2023-01-22T23:59:48.711Z,3.57
